Time;durP1;ratioP1;P1;durP2;ratioP2;P2;SDS_P1;SDS_P2;PMS_P1;PMS_P2;Temp;Humidity;BMP_temperature;BMP_pressure;BME280_temperature;BME280_humidity;BME280_pressure;Samples;Min_cycle;Max_cycle;Signal;HPM_P1;HPM_P2
2023/05/31 00:03:58;;;;;;;5.20;3.08;;;;;;;11.84;66.20;101110.63;10260564;28;20050;-86
2023/05/31 00:09:02;;;;;;;4.70;3.13;;;;;;;12.12;65.55;101111.91;10275282;28;20051;-85
2023/05/31 00:14:05;;;;;;;6.35;3.45;;;;;;;12.39;64.44;101104.13;10267148;28;20058;-84
2023/05/31 00:19:07;;;;;;;5.50;3.25;;;;;;;12.47;64.34;101091.69;10267264;28;20039;-84
2023/05/31 00:24:11;;;;;;;6.20;3.42;;;;;;;12.54;64.70;101093.03;10257060;28;20043;-84
2023/05/31 00:29:13;;;;;;;5.07;3.13;;;;;;;12.71;63.92;101091.84;10257265;28;20049;-85
2023/05/31 00:34:16;;;;;;;8.90;2.95;;;;;;;12.79;63.59;101097.56;10274942;28;20053;-85
2023/05/31 00:39:18;;;;;;;4.78;2.55;;;;;;;12.67;63.76;101086.91;10232656;29;20039;-84
2023/05/31 00:44:21;;;;;;;4.15;2.17;;;;;;;12.67;64.33;101086.09;10244746;29;20055;-85
2023/05/31 00:49:25;;;;;;;1.90;1.67;;;;;;;12.77;64.56;101085.19;10229314;29;20050;-84
2023/05/31 00:54:27;;;;;;;2.72;1.77;;;;;;;12.68;64.33;101087.75;10226508;29;20412;-85
2023/05/31 00:59:30;;;;;;;2.97;1.58;;;;;;;12.73;64.65;101084.94;10235122;29;20047;-86
2023/05/31 01:04:32;;;;;;;3.42;1.65;;;;;;;12.55;64.88;101074.59;10263620;29;20043;-84
2023/05/31 01:09:35;;;;;;;5.40;1.30;;;;;;;12.74;64.61;101075.56;10259646;29;20066;-84
2023/05/31 01:14:44;;;;;;;3.50;1.55;;;;;;;12.78;64.86;101071.13;10239791;29;20047;-85
2023/05/31 01:19:52;;;;;;;2.42;1.10;;;;;;;12.59;65.40;101067.41;10270508;28;20035;-85
2023/05/31 01:25:13;;;;;;;3.90;1.67;;;;;;;12.60;65.64;101058.84;10250690;29;20404;-85
2023/05/31 01:30:16;;;;;;;5.68;1.45;;;;;;;12.67;65.43;101047.53;10271356;29;20081;-84
2023/05/31 01:35:19;;;;;;;2.90;1.25;;;;;;;13.02;64.33;101040.13;10262376;29;20047;-85
2023/05/31 01:40:21;;;;;;;1.80;0.80;;;;;;;12.99;64.76;101038.75;10239958;29;20043;-85
2023/05/31 01:45:25;;;;;;;1.30;0.90;;;;;;;13.02;64.59;101031.88;10248985;28;20047;-86
2023/05/31 01:50:28;;;;;;;3.15;0.77;;;;;;;12.92;65.48;101043.78;10253948;29;20058;-86
2023/05/31 01:55:30;;;;;;;1.35;1.00;;;;;;;12.99;65.40;101033.25;10262306;29;20051;-85
2023/05/31 02:00:33;;;;;;;1.63;0.90;;;;;;;13.19;65.09;101032.28;10242247;29;20055;-85
2023/05/31 02:05:36;;;;;;;1.80;0.70;;;;;;;13.42;64.35;101031.53;10270031;29;20051;-86
2023/05/31 02:10:38;;;;;;;3.60;1.08;;;;;;;13.56;63.73;101028.91;10284185;29;20051;-85
2023/05/31 02:15:43;;;;;;;2.60;1.00;;;;;;;13.49;64.03;101033.94;10237098;29;20047;-85
2023/05/31 02:20:46;;;;;;;1.42;0.80;;;;;;;13.65;63.41;101016.13;10224035;29;20043;-85
2023/05/31 02:25:55;;;;;;;1.65;0.85;;;;;;;13.84;62.73;101022.53;10257759;29;20303;-85
2023/05/31 02:30:58;;;;;;;1.33;0.82;;;;;;;14.04;62.22;101015.13;10246100;29;20047;-85
2023/05/31 02:36:01;;;;;;;2.25;0.88;;;;;;;14.24;61.55;101011.28;10267916;29;20401;-86
2023/05/31 02:41:03;;;;;;;3.22;0.70;;;;;;;14.41;60.95;101003.31;10267527;29;20043;-85
2023/05/31 02:46:06;;;;;;;1.80;0.73;;;;;;;14.29;60.16;101008.47;10252110;29;20061;-85
2023/05/31 02:51:08;;;;;;;2.45;1.10;;;;;;;14.09;60.60;101001.28;10250032;29;20043;-86
2023/05/31 02:56:45;;;;;;;0.80;0.73;;;;;;;13.72;61.32;101004.75;10216065;29;20059;-85
2023/05/31 03:01:53;;;;;;;0.95;0.70;;;;;;;13.68;61.97;100990.72;10249490;29;20054;-86
2023/05/31 03:07:18;;;;;;;2.75;1.17;;;;;;;13.72;61.13;101002.00;10234312;29;20047;-86
2023/05/31 03:12:21;;;;;;;2.40;0.80;;;;;;;13.13;61.98;101003.09;10242902;29;20171;-85
2023/05/31 03:17:24;;;;;;;1.48;0.60;;;;;;;12.56;63.64;100996.41;10246233;29;20471;-85
2023/05/31 03:22:27;;;;;;;0.98;0.68;;;;;;;12.17;63.95;100994.44;10265288;29;20050;-86
2023/05/31 03:27:30;;;;;;;2.78;0.80;;;;;;;11.91;64.78;100990.16;10276516;29;20043;-85
2023/05/31 03:32:32;;;;;;;2.05;0.70;;;;;;;11.99;64.89;100992.31;10220334;29;20047;-85
2023/05/31 03:37:35;;;;;;;1.48;1.08;;;;;;;12.72;63.36;100986.94;10256628;29;20532;-86
2023/05/31 03:42:41;;;;;;;3.50;0.67;;;;;;;13.65;60.42;100969.25;10228613;29;20385;-85
2023/05/31 03:47:44;;;;;;;3.67;0.63;;;;;;;14.41;58.00;100953.63;10244266;28;20047;-85
2023/05/31 03:52:47;;;;;;;1.88;0.70;;;;;;;14.78;56.17;100944.50;10265883;29;20070;-86
2023/05/31 03:57:50;;;;;;;1.13;0.50;;;;;;;15.09;56.13;100944.78;10264321;29;20432;-85
2023/05/31 04:02:54;;;;;;;1.98;0.73;;;;;;;14.54;57.01;100925.25;10243488;29;20544;-84
2023/05/31 04:07:59;;;;;;;1.90;1.05;;;;;;;15.46;55.02;100918.13;10230404;28;20039;-86
2023/05/31 04:13:01;;;;;;;4.38;0.90;;;;;;;15.80;54.13;100923.25;10249401;29;20054;-85
2023/05/31 04:18:05;;;;;;;1.80;0.80;;;;;;;16.24;53.18;100917.00;10263430;29;20042;-84
2023/05/31 04:23:08;;;;;;;2.17;0.75;;;;;;;16.78;52.29;100909.63;10225990;29;20073;-87
2023/05/31 04:28:12;;;;;;;2.58;0.85;;;;;;;16.92;52.96;100898.47;10219065;29;20039;-84
2023/05/31 04:33:17;;;;;;;1.98;0.60;;;;;;;16.79;51.96;100903.75;10225856;29;20050;-85
2023/05/31 04:38:22;;;;;;;2.03;0.80;;;;;;;16.94;51.93;100904.50;10260749;29;20043;-86
2023/05/31 04:43:26;;;;;;;2.60;0.82;;;;;;;17.56;50.81;100893.38;10248498;29;20043;-84
2023/05/31 04:48:29;;;;;;;2.75;0.95;;;;;;;17.64;50.78;100881.47;10246443;29;20051;-84
2023/05/31 04:53:34;;;;;;;1.15;0.68;;;;;;;17.12;51.71;100882.09;10263668;29;20047;-85
2023/05/31 04:58:37;;;;;;;1.95;0.88;;;;;;;15.95;54.64;100875.84;10237951;29;20054;-86
2023/05/31 05:03:39;;;;;;;2.28;0.63;;;;;;;15.58;56.13;100877.72;10238931;29;20054;-84
2023/05/31 05:08:43;;;;;;;4.10;1.35;;;;;;;15.35;56.90;100854.72;10219501;29;20516;-85
2023/05/31 05:13:46;;;;;;;2.42;0.70;;;;;;;15.01;57.62;100846.00;10237039;29;20043;-86
2023/05/31 05:18:50;;;;;;;0.70;0.70;;;;;;;14.87;58.22;100850.69;10243007;29;20043;-85
2023/05/31 05:23:52;;;;;;;2.42;0.80;;;;;;;14.40;58.22;100855.31;10245871;29;20513;-85
2023/05/31 05:28:54;;;;;;;3.42;0.90;;;;;;;15.55;57.31;100839.63;10249586;29;20054;-87
2023/05/31 05:33:57;;;;;;;1.52;0.68;;;;;;;17.24;52.95;100822.44;10255165;29;20039;-86
2023/05/31 05:39:06;;;;;;;0.82;0.50;;;;;;;17.29;51.94;100813.97;10233456;29;20035;-86
2023/05/31 05:44:09;;;;;;;1.45;0.77;;;;;;;17.18;51.70;100805.97;10217375;29;20521;-85
2023/05/31 05:49:12;;;;;;;2.78;0.95;;;;;;;16.77;51.71;100813.75;10215378;29;20062;-85
2023/05/31 05:54:15;;;;;;;3.83;0.70;;;;;;;16.35;51.65;100809.59;10241567;28;20515;-85
2023/05/31 05:59:18;;;;;;;2.42;0.82;;;;;;;15.72;53.16;100794.75;10268906;29;20035;-86
2023/05/31 06:04:42;;;;;;;2.17;0.52;;;;;;;15.25;54.21;100787.72;10257268;29;20051;-85
2023/05/31 06:09:48;;;;;;;3.85;1.00;;;;;;;14.93;53.46;100794.22;10256950;29;20058;-92
2023/05/31 06:14:54;;;;;;;5.60;1.15;;;;;;;14.78;54.04;100798.91;10241121;29;20039;-84
2023/05/31 06:19:56;;;;;;;4.55;0.70;;;;;;;14.90;54.29;100801.16;10254030;29;20047;-86
2023/05/31 06:24:59;;;;;;;0.50;0.50;;;;;;;14.86;55.49;100782.72;10220539;29;20492;-86
2023/05/31 06:30:02;;;;;;;2.40;0.70;;;;;;;14.81;53.49;100788.38;10243566;29;20460;-85
2023/05/31 06:35:09;;;;;;;3.53;0.50;;;;;;;14.72;52.91;100778.00;10226032;29;20043;-86
2023/05/31 06:40:11;;;;;;;2.17;0.60;;;;;;;14.40;53.59;100781.59;10267260;29;20043;-86
2023/05/31 06:45:15;;;;;;;2.15;0.60;;;;;;;14.01;55.08;100764.63;10245538;29;20043;-84
2023/05/31 06:50:30;;;;;;;1.48;0.60;;;;;;;13.90;56.46;100771.44;10275635;29;20055;-86
2023/05/31 06:55:51;;;;;;;4.18;0.82;;;;;;;14.13;54.74;100765.78;10276688;29;20424;-85
2023/05/31 07:00:56;;;;;;;1.55;0.52;;;;;;;13.86;54.87;100760.16;10246585;29;20039;-84
2023/05/31 07:05:59;;;;;;;2.78;0.50;;;;;;;13.75;54.99;100751.25;10263838;29;20039;-86
2023/05/31 07:11:01;;;;;;;2.47;1.05;;;;;;;13.53;55.68;100740.81;10262642;29;20058;-85
2023/05/31 07:16:03;;;;;;;2.90;0.80;;;;;;;13.00;56.65;100742.88;10280934;29;20047;-86
2023/05/31 07:21:08;;;;;;;1.63;0.50;;;;;;;13.23;56.94;100738.50;10248705;29;20039;-87
2023/05/31 07:26:10;;;;;;;0.70;0.50;;;;;;;13.32;56.18;100733.94;10248868;29;20047;-85
2023/05/31 07:31:13;;;;;;;3.88;0.60;;;;;;;13.29;56.85;100723.53;10227441;29;20464;-84
2023/05/31 07:36:15;;;;;;;1.42;0.70;;;;;;;13.46;57.55;100718.31;10224090;29;20070;-85
2023/05/31 07:41:18;;;;;;;3.00;0.40;;;;;;;13.56;57.86;100712.66;10256849;29;20047;-83
2023/05/31 07:46:20;;;;;;;1.23;0.47;;;;;;;14.11;57.01;100693.53;10249590;29;20059;-83
2023/05/31 07:51:23;;;;;;;3.97;0.55;;;;;;;15.14;52.22;100684.06;10238060;29;20074;-87
2023/05/31 07:56:25;;;;;;;3.75;0.60;;;;;;;16.17;48.95;100678.53;10217739;29;20043;-86
2023/05/31 08:01:28;;;;;;;2.10;0.70;;;;;;;17.55;45.35;100662.25;10232797;29;20046;-86
2023/05/31 08:06:30;;;;;;;0.65;0.50;;;;;;;18.54;42.67;100648.28;10252435;29;20051;-87
2023/05/31 08:11:35;;;;;;;5.18;0.70;;;;;;;18.02;43.00;100656.78;10246942;29;20062;-85
2023/05/31 08:16:39;;;;;;;1.70;0.70;;;;;;;18.56;42.24;100644.00;10248282;29;20042;-86
2023/05/31 08:21:41;;;;;;;1.27;0.70;;;;;;;19.21;40.24;100647.41;10241986;28;20547;-87
2023/05/31 08:26:45;;;;;;;1.92;0.57;;;;;;;19.28;39.60;100654.06;10259336;29;20043;-88
2023/05/31 08:31:48;;;;;;;1.42;0.70;;;;;;;19.15;39.88;100638.44;10261943;29;20513;-86
2023/05/31 08:36:50;;;;;;;0.82;0.70;;;;;;;19.51;38.89;100632.25;10234939;29;20408;-87
2023/05/31 08:42:00;;;;;;;1.45;0.70;;;;;;;19.53;38.78;100634.69;10261539;29;20039;-85
2023/05/31 08:47:14;;;;;;;2.72;0.88;;;;;;;19.72;38.08;100615.53;10255984;29;20114;-86
2023/05/31 08:52:17;;;;;;;2.10;0.80;;;;;;;19.26;38.57;100609.06;10249339;29;20059;-87
2023/05/31 08:57:20;;;;;;;2.75;0.70;;;;;;;19.00;38.41;100610.41;10256768;28;20046;-87
2023/05/31 09:02:24;;;;;;;2.97;1.25;;;;;;;18.17;39.74;100588.78;10265848;29;20047;-87
2023/05/31 09:07:27;;;;;;;2.83;0.90;;;;;;;17.86;39.98;100594.63;10238588;29;20055;-88
2023/05/31 09:12:29;;;;;;;1.40;0.73;;;;;;;17.49;40.69;100570.03;10248786;29;20039;-84
2023/05/31 09:17:32;;;;;;;3.80;1.10;;;;;;;17.06;41.73;100572.03;10249431;28;20054;-89
2023/05/31 09:22:34;;;;;;;1.42;0.82;;;;;;;17.22;41.50;100564.84;10260490;29;20148;-85
2023/05/31 09:27:38;;;;;;;2.70;0.80;;;;;;;17.26;42.11;100556.69;10268873;28;20046;-86
2023/05/31 09:32:41;;;;;;;1.42;0.63;;;;;;;17.26;41.72;100551.16;10318175;28;20035;-85
2023/05/31 09:37:45;;;;;;;2.38;1.13;;;;;;;17.01;42.20;100536.13;10328735;28;20039;-85
2023/05/31 09:42:48;;;;;;;4.25;0.95;;;;;;;16.86;42.38;100518.88;10263730;28;20039;-83
2023/05/31 09:47:51;;;;;;;1.75;0.80;;;;;;;16.84;42.92;100535.03;10271732;29;20047;-84
2023/05/31 09:52:59;;;;;;;1.50;0.70;;;;;;;16.56;43.08;100523.38;10255560;28;20440;-84
2023/05/31 09:58:03;;;;;;;1.58;0.90;;;;;;;16.48;43.24;100518.63;10255905;29;20488;-84
2023/05/31 10:03:05;;;;;;;1.90;0.77;;;;;;;16.09;44.17;100510.41;10262089;29;20054;-84
2023/05/31 10:08:07;;;;;;;2.90;1.10;;;;;;;15.85;44.57;100511.66;10266510;28;20039;-84
2023/05/31 10:13:12;;;;;;;2.33;1.25;;;;;;;15.94;45.20;100497.81;10254224;29;20519;-86
2023/05/31 10:18:16;;;;;;;3.15;1.10;;;;;;;16.34;44.65;100483.94;10239207;29;20044;-87
2023/05/31 10:23:23;;;;;;;3.08;1.05;;;;;;;16.77;44.16;100481.22;10217296;29;20047;-90
2023/05/31 10:28:28;;;;;;;3.15;1.20;;;;;;;16.93;44.28;100456.59;10226768;29;20047;-88
2023/05/31 10:33:30;;;;;;;2.17;0.80;;;;;;;17.27;43.90;100462.06;10266761;28;20039;-89
2023/05/31 10:38:45;;;;;;;3.83;0.98;;;;;;;17.53;43.03;100459.22;10199492;29;20050;-89
2023/05/31 10:43:56;;;;;;;1.67;1.00;;;;;;;17.69;42.38;100456.72;10215013;29;20052;-89
2023/05/31 10:48:59;;;;;;;2.63;0.90;;;;;;;17.86;41.52;100448.31;10216787;29;20428;-88
2023/05/31 10:54:01;;;;;;;2.15;0.80;;;;;;;18.10;40.62;100444.09;10269673;29;20547;-89
2023/05/31 10:59:04;;;;;;;3.70;0.80;;;;;;;18.27;40.22;100427.34;10269461;29;20509;-88
2023/05/31 11:04:19;;;;;;;3.42;1.20;;;;;;;17.97;40.32;100415.44;10254235;29;20389;-89
2023/05/31 11:09:23;;;;;;;4.32;1.00;;;;;;;17.77;40.36;100411.47;10283901;29;20484;-88
2023/05/31 11:14:28;;;;;;;3.00;0.80;;;;;;;17.78;40.74;100405.59;10252905;29;20054;-86
2023/05/31 11:19:32;;;;;;;2.45;0.80;;;;;;;17.64;40.28;100393.06;10268054;28;20039;-87
2023/05/31 11:24:49;;;;;;;5.45;1.10;;;;;;;17.77;39.84;100398.41;10284031;29;20038;-87
2023/05/31 11:29:51;;;;;;;2.75;1.00;;;;;;;17.81;40.23;100383.84;10252665;29;20511;-87
2023/05/31 11:35:00;;;;;;;1.23;0.80;;;;;;;17.80;40.72;100385.81;10268319;29;20050;-87
2023/05/31 11:40:06;;;;;;;2.72;0.80;;;;;;;17.77;40.35;100376.22;10248290;29;20066;-89
2023/05/31 11:45:13;;;;;;;1.65;1.02;;;;;;;17.72;40.46;100373.63;10251988;29;20047;-89
2023/05/31 11:50:18;;;;;;;1.63;0.90;;;;;;;17.59;41.43;100366.31;10220440;29;20062;-88
2023/05/31 11:55:21;;;;;;;5.30;1.30;;;;;;;17.58;41.40;100361.91;10243265;29;20039;-90
2023/05/31 12:00:23;;;;;;;2.60;0.95;;;;;;;17.64;42.09;100355.03;10236214;29;20054;-92
2023/05/31 12:05:25;;;;;;;2.72;1.00;;;;;;;17.70;41.53;100353.72;10235072;29;20077;-87
2023/05/31 12:10:28;;;;;;;3.65;1.20;;;;;;;17.74;42.12;100342.75;10212907;29;20390;-86
2023/05/31 12:15:31;;;;;;;1.58;0.90;;;;;;;17.73;42.04;100349.47;10236734;29;20043;-87
2023/05/31 12:20:34;;;;;;;3.80;1.33;;;;;;;17.65;42.43;100340.00;10195604;29;20078;-87
2023/05/31 12:25:36;;;;;;;2.30;1.25;;;;;;;17.87;42.08;100335.31;10195086;29;20054;-86
2023/05/31 12:30:46;;;;;;;3.03;1.40;;;;;;;17.93;41.93;100333.97;10195115;29;20046;-87
2023/05/31 12:35:48;;;;;;;2.65;1.30;;;;;;;17.87;41.99;100326.97;10226241;29;20074;-87
2023/05/31 12:40:52;;;;;;;5.22;1.10;;;;;;;17.75;41.42;100319.41;10226700;29;20048;-87
2023/05/31 12:45:55;;;;;;;1.60;1.02;;;;;;;17.50;42.29;100318.38;10194523;29;20413;-87
2023/05/31 12:50:57;;;;;;;4.97;1.38;;;;;;;17.36;43.60;100320.59;10226237;29;20051;-87
2023/05/31 12:56:00;;;;;;;2.00;1.25;;;;;;;17.15;44.15;100315.78;10226747;29;20055;-87
2023/05/31 13:01:03;;;;;;;3.55;1.20;;;;;;;16.93;46.64;100318.00;10211644;29;20416;-87
2023/05/31 13:06:06;;;;;;;3.92;1.17;;;;;;;16.69;48.88;100304.72;10247991;29;20543;-87
2023/05/31 13:11:08;;;;;;;4.55;1.00;;;;;;;16.55;47.53;100313.19;10265379;29;20129;-87
2023/05/31 13:16:10;;;;;;;2.33;1.00;;;;;;;16.40;47.97;100308.16;10265733;29;20050;-87
2023/05/31 13:21:12;;;;;;;2.70;1.35;;;;;;;16.14;48.50;100308.19;10249601;29;20053;-87
2023/05/31 13:26:14;;;;;;;1.88;1.13;;;;;;;16.12;48.75;100308.50;10249194;29;20155;-87
2023/05/31 13:31:17;;;;;;;3.08;1.05;;;;;;;16.07;49.45;100318.94;10264853;29;20038;-87
2023/05/31 13:36:20;;;;;;;3.10;1.13;;;;;;;15.93;50.16;100319.91;10237054;29;20039;-87
2023/05/31 13:41:22;;;;;;;3.30;1.30;;;;;;;15.64;51.69;100319.72;10263454;28;20047;-87
2023/05/31 13:46:26;;;;;;;5.18;1.30;;;;;;;15.54;53.14;100317.22;10235762;29;20424;-87
2023/05/31 13:51:47;;;;;;;3.10;1.40;;;;;;;15.26;54.02;100289.81;10233020;29;20054;-96
2023/05/31 13:56:49;;;;;;;1.70;1.00;;;;;;;15.24;54.53;100292.09;10234799;29;20064;-86
2023/05/31 14:01:52;;;;;;;2.95;0.93;;;;;;;15.03;55.66;100289.09;10273436;29;20417;-86
2023/05/31 14:06:54;;;;;;;5.38;1.15;;;;;;;15.03;55.90;100282.75;10263699;29;20520;-90
2023/05/31 14:11:58;;;;;;;5.28;1.08;;;;;;;14.69;56.36;100286.19;10257122;29;20432;-87
2023/05/31 14:17:00;;;;;;;3.03;1.08;;;;;;;14.72;56.19;100293.84;10256988;29;20508;-86
2023/05/31 14:22:03;;;;;;;4.95;1.10;;;;;;;14.58;57.26;100287.56;10256482;29;20047;-90
2023/05/31 14:27:05;;;;;;;1.73;1.00;;;;;;;14.44;57.54;100290.44;10231298;29;20044;-88
2023/05/31 14:32:09;;;;;;;2.20;1.10;;;;;;;14.37;58.45;100285.31;10250526;29;20056;-92
2023/05/31 14:37:12;;;;;;;3.25;1.20;;;;;;;14.38;59.82;100286.13;10268795;28;20062;-90
2023/05/31 14:42:16;;;;;;;2.88;0.95;;;;;;;14.17;61.34;100274.78;10229374;28;20039;-86
2023/05/31 14:47:18;;;;;;;4.57;1.20;;;;;;;13.96;63.26;100274.47;10254523;28;20058;-87
2023/05/31 14:52:21;;;;;;;2.17;0.88;;;;;;;13.92;63.34;100270.72;10242320;28;20039;-85
2023/05/31 14:57:23;;;;;;;3.70;1.40;;;;;;;13.87;63.28;100265.31;10279829;28;20051;-86
2023/05/31 15:02:25;;;;;;;5.78;1.63;;;;;;;13.92;64.44;100267.97;10262005;29;20053;-88
2023/05/31 15:07:27;;;;;;;4.63;1.45;;;;;;;13.91;64.07;100258.06;10243265;29;20055;-84
2023/05/31 15:12:30;;;;;;;7.80;1.88;;;;;;;14.00;64.02;100239.63;10239503;28;20039;-88
2023/05/31 15:17:32;;;;;;;9.23;2.15;;;;;;;14.11;63.53;100235.50;10276589;29;20047;-87
2023/05/31 15:22:38;;;;;;;5.57;1.95;;;;;;;14.27;64.12;100229.59;10274000;29;20070;-89
2023/05/31 15:27:41;;;;;;;5.15;1.55;;;;;;;14.32;64.10;100243.25;10273512;29;20043;-90
2023/05/31 15:33:09;;;;;;;4.20;2.00;;;;;;;14.23;64.31;100237.69;10274960;29;20050;-90
2023/05/31 15:38:11;;;;;;;7.22;2.10;;;;;;;13.92;66.42;100234.88;10247094;29;20039;-92
2023/05/31 15:43:14;;;;;;;9.73;3.40;;;;;;;13.92;67.80;100232.09;10256710;29;20050;-85
2023/05/31 15:48:17;;;;;;;5.00;2.08;;;;;;;13.84;68.31;100238.34;10236583;29;20054;-86
2023/05/31 15:53:19;;;;;;;7.55;2.20;;;;;;;13.65;68.58;100233.03;10252382;29;20078;-86
2023/05/31 15:58:22;;;;;;;5.95;2.13;;;;;;;13.61;68.31;100218.22;10235018;29;20529;-86
2023/05/31 16:03:25;;;;;;;6.22;2.22;;;;;;;13.74;66.60;100217.38;10251267;29;20035;-85
2023/05/31 16:08:27;;;;;;;4.25;1.80;;;;;;;13.76;66.20;100219.81;10284106;28;20043;-87
2023/05/31 16:13:29;;;;;;;7.07;2.38;;;;;;;13.81;65.62;100228.78;10255130;29;20043;-86
2023/05/31 16:18:31;;;;;;;6.32;2.05;;;;;;;13.95;65.47;100225.97;10259483;29;20050;-85
2023/05/31 16:23:34;;;;;;;4.38;1.80;;;;;;;14.18;65.03;100219.28;10278851;29;20051;-86
2023/05/31 16:28:36;;;;;;;4.10;1.95;;;;;;;14.24;66.13;100213.66;10264955;29;20055;-86
2023/05/31 16:33:39;;;;;;;2.65;1.25;;;;;;;14.14;66.48;100221.06;10261700;29;20047;-81
2023/05/31 16:38:41;;;;;;;5.60;2.70;;;;;;;14.16;66.15;100215.22;10225867;28;20039;-82
2023/05/31 16:43:44;;;;;;;1.90;1.35;;;;;;;14.11;65.50;100232.72;10230455;29;20488;-83
2023/05/31 16:48:48;;;;;;;4.18;1.80;;;;;;;14.02;65.73;100220.81;10242215;29;20509;-85
2023/05/31 16:53:52;;;;;;;1.95;1.25;;;;;;;13.81;66.57;100223.25;10249847;29;20039;-85
2023/05/31 16:58:55;;;;;;;3.67;1.55;;;;;;;13.67;66.34;100221.69;10214477;29;20054;-85
2023/05/31 17:03:58;;;;;;;4.55;1.50;;;;;;;13.56;66.69;100208.16;10228234;28;20058;-85
2023/05/31 17:09:00;;;;;;;3.25;1.33;;;;;;;13.51;67.11;100223.97;10246584;29;20049;-84
2023/05/31 17:14:02;;;;;;;2.85;1.48;;;;;;;13.37;67.69;100210.25;10239341;28;20035;-82
2023/05/31 17:19:05;;;;;;;2.80;1.20;;;;;;;13.33;68.67;100217.47;10302053;28;20046;-84
2023/05/31 17:24:07;;;;;;;2.88;1.20;;;;;;;13.10;70.07;100221.28;10272834;29;20063;-84
2023/05/31 17:29:10;;;;;;;2.97;1.33;;;;;;;13.10;70.57;100224.03;10256795;29;20058;-84
2023/05/31 17:34:13;;;;;;;2.63;1.48;;;;;;;13.03;70.90;100212.63;10257576;29;20039;-84
2023/05/31 17:39:15;;;;;;;2.03;1.40;;;;;;;12.87;71.33;100212.94;10217100;29;20056;-84
2023/05/31 17:44:18;;;;;;;5.93;1.55;;;;;;;12.74;72.17;100197.22;10259092;29;20504;-84
2023/05/31 17:49:20;;;;;;;6.80;1.33;;;;;;;12.60;72.50;100201.91;10240785;28;20085;-84
2023/05/31 17:54:23;;;;;;;4.00;1.35;;;;;;;12.46;72.47;100207.41;10264263;29;20424;-84
2023/05/31 17:59:25;;;;;;;5.15;1.55;;;;;;;12.44;73.32;100203.34;10262505;28;20046;-85
2023/05/31 18:04:28;;;;;;;2.70;1.10;;;;;;;12.57;73.39;100205.28;10287107;29;20050;-84
2023/05/31 18:09:55;;;;;;;2.75;1.60;;;;;;;12.63;73.20;100193.84;10298799;28;20508;-84
2023/05/31 18:14:57;;;;;;;;;;;;;;;12.54;73.62;100198.47;10271780;28;20058;-84
2023/05/31 18:19:59;;;;;;;5.32;1.60;;;;;;;12.67;73.44;100199.59;10274071;28;19925;-83
2023/05/31 18:25:01;;;;;;;3.92;1.48;;;;;;;12.86;73.20;100196.72;10276224;29;20035;-85
2023/05/31 18:30:05;;;;;;;3.00;1.70;;;;;;;12.95;72.81;100190.19;10245838;29;20039;-86
2023/05/31 18:35:07;;;;;;;3.45;1.50;;;;;;;13.07;71.93;100186.09;10221369;29;20512;-84
2023/05/31 18:40:10;;;;;;;3.05;1.35;;;;;;;12.92;72.63;100174.28;10266738;29;20046;-85
2023/05/31 18:45:12;;;;;;;4.53;1.40;;;;;;;12.93;72.20;100175.91;10255514;29;20058;-85
2023/05/31 18:50:15;;;;;;;4.82;1.75;;;;;;;12.88;72.28;100164.19;10291898;29;20098;-86
2023/05/31 18:55:17;;;;;;;3.78;1.42;;;;;;;12.71;72.94;100170.31;10270696;29;20047;-86
2023/05/31 19:00:22;;;;;;;3.33;1.80;;;;;;;12.61;72.97;100165.81;10288380;28;20035;-87
2023/05/31 19:05:24;;;;;;;3.88;1.13;;;;;;;12.66;72.64;100162.97;10238151;29;20054;-86
2023/05/31 19:10:27;;;;;;;4.97;1.55;;;;;;;12.78;72.85;100161.63;10253751;28;20047;-85
2023/05/31 19:15:29;;;;;;;3.50;1.48;;;;;;;12.93;71.71;100156.63;10253451;29;20035;-86
2023/05/31 19:20:31;;;;;;;3.22;1.55;;;;;;;12.78;72.04;100156.94;10253354;29;20128;-85
2023/05/31 19:25:33;;;;;;;3.85;1.75;;;;;;;13.11;71.53;100160.38;10266342;29;20397;-85
2023/05/31 19:30:36;;;;;;;2.90;1.38;;;;;;;13.27;70.17;100152.59;10236321;29;20043;-85
2023/05/31 19:35:38;;;;;;;2.83;1.40;;;;;;;13.20;70.13;100158.56;10212158;29;20059;-86
2023/05/31 19:40:40;;;;;;;4.78;1.30;;;;;;;13.16;70.23;100140.16;10252124;28;20035;-85
2023/05/31 19:45:42;;;;;;;3.53;1.42;;;;;;;13.02;71.56;100151.22;10262382;29;20055;-86
2023/05/31 19:50:45;;;;;;;5.28;1.60;;;;;;;13.17;70.51;100141.78;10252550;29;20393;-87
2023/05/31 19:55:47;;;;;;;4.97;1.48;;;;;;;13.15;70.99;100141.28;10251727;29;20051;-84
2023/05/31 20:00:50;;;;;;;3.58;1.58;;;;;;;13.11;70.92;100141.09;10263060;29;20508;-88
2023/05/31 20:05:52;;;;;;;4.38;1.40;;;;;;;13.06;71.35;100132.94;10272287;28;20050;-85
2023/05/31 20:10:54;;;;;;;4.93;1.55;;;;;;;13.10;71.66;100142.22;10234813;29;20047;-86
2023/05/31 20:15:56;;;;;;;1.88;1.48;;;;;;;13.17;71.13;100130.75;10278092;28;20046;-84
2023/05/31 20:20:59;;;;;;;5.70;1.48;;;;;;;13.10;71.35;100133.94;10276479;29;20047;-84
2023/05/31 20:26:01;;;;;;;3.33;1.50;;;;;;;13.02;71.49;100122.88;10240906;28;20035;-84
2023/05/31 20:31:03;;;;;;;5.80;1.70;;;;;;;12.95;72.31;100124.09;10253625;29;20522;-84
2023/05/31 20:36:05;;;;;;;3.42;1.50;;;;;;;12.77;72.04;100122.28;10248921;29;20035;-84
2023/05/31 20:41:08;;;;;;;4.60;1.42;;;;;;;12.59;73.45;100110.28;10238706;28;20059;-84
2023/05/31 20:46:10;;;;;;;4.15;1.58;;;;;;;12.68;73.36;100107.63;10269787;28;20035;-84
2023/05/31 20:51:12;;;;;;;2.63;1.30;;;;;;;12.60;73.33;100111.91;10233480;28;20134;-84
2023/05/31 20:56:15;;;;;;;6.50;1.20;;;;;;;12.53;74.26;100105.19;10238187;28;20035;-85
2023/05/31 21:01:17;;;;;;;2.70;1.38;;;;;;;12.41;74.69;100107.63;10260474;28;20527;-84
2023/05/31 21:06:19;;;;;;;1.77;1.30;;;;;;;12.48;75.00;100108.84;10265794;28;20047;-85
2023/05/31 21:11:21;;;;;;;4.35;1.58;;;;;;;12.43;75.20;100108.16;10245833;28;20500;-85
2023/05/31 21:16:23;;;;;;;4.32;1.23;;;;;;;12.45;75.26;100108.66;10264614;28;20046;-84
2023/05/31 21:21:26;;;;;;;4.38;1.52;;;;;;;12.43;75.61;100106.22;10266085;28;20047;-85
2023/05/31 21:26:28;;;;;;;2.13;1.23;;;;;;;12.43;75.23;100097.13;10253842;28;20453;-85
2023/05/31 21:31:32;;;;;;;5.75;1.20;;;;;;;12.52;75.84;100109.06;10287482;28;20043;-85
2023/05/31 21:36:34;;;;;;;2.83;1.00;;;;;;;12.48;75.56;100095.09;10263976;28;20039;-85
2023/05/31 21:41:36;;;;;;;4.53;1.33;;;;;;;12.44;76.02;100094.06;10280199;28;20050;-84
2023/05/31 21:46:38;;;;;;;3.67;1.23;;;;;;;12.39;76.70;100088.69;10289896;28;20050;-84
2023/05/31 21:51:41;;;;;;;2.67;1.35;;;;;;;12.32;76.90;100078.09;10303665;28;20061;-83
2023/05/31 21:56:43;;;;;;;2.55;1.33;;;;;;;12.25;77.04;100069.44;10285025;28;20049;-84
2023/05/31 22:01:46;;;;;;;1.55;1.00;;;;;;;12.16;77.77;100070.47;10263227;28;20059;-85
2023/05/31 22:06:49;;;;;;;2.38;1.27;;;;;;;12.19;77.56;100064.34;10243851;28;20043;-84
2023/05/31 22:11:51;;;;;;;2.75;1.23;;;;;;;12.34;77.47;100064.84;10287861;28;20496;-84
2023/05/31 22:16:56;;;;;;;4.45;1.23;;;;;;;12.35;77.58;100060.16;10295071;28;20034;-85
2023/05/31 22:21:59;;;;;;;3.08;1.27;;;;;;;12.33;77.85;100068.72;10268865;28;20053;-85
2023/05/31 22:27:01;;;;;;;2.25;1.10;;;;;;;12.34;78.03;100067.59;10315426;28;20049;-85
2023/05/31 22:32:03;;;;;;;1.50;0.98;;;;;;;12.40;77.86;100061.97;10274417;28;20053;-84
2023/05/31 22:37:06;;;;;;;2.63;1.30;;;;;;;12.40;78.22;100070.25;10284295;28;20035;-83
2023/05/31 22:42:09;;;;;;;4.43;1.70;;;;;;;12.44;77.43;100058.31;10280405;28;20048;-84
2023/05/31 22:47:11;;;;;;;2.78;1.75;;;;;;;12.29;78.98;100051.19;10291737;28;20053;-83
2023/05/31 22:52:14;;;;;;;4.03;1.55;;;;;;;12.22;79.39;100048.03;10241576;28;20047;-84
2023/05/31 22:57:17;;;;;;;3.30;1.42;;;;;;;12.40;79.26;100054.53;10272895;28;20452;-84
2023/05/31 23:02:20;;;;;;;4.63;1.27;;;;;;;12.48;78.02;100036.47;10282695;28;20043;-84
2023/05/31 23:07:23;;;;;;;4.28;1.75;;;;;;;12.27;79.06;100042.41;10288996;28;20053;-84
2023/05/31 23:12:30;;;;;;;4.80;1.42;;;;;;;12.18;80.14;100041.53;10282188;28;20047;-84
2023/05/31 23:17:36;;;;;;;5.00;1.60;;;;;;;12.24;80.05;100040.28;10270935;28;20044;-83